createdAt,value
2023-03-04T00:02:43.420Z,78.20
2023-03-04T00:07:45.589Z,78.10
2023-03-04T00:12:49.198Z,78.10
2023-03-04T00:17:51.298Z,78.10
2023-03-04T00:22:53.849Z,77.90
2023-03-04T00:27:57.487Z,77.80
2023-03-04T00:32:59.598Z,77.60
2023-03-04T00:38:01.784Z,77.50
2023-03-04T00:43:05.346Z,77.40
2023-03-04T00:48:07.605Z,77.40
2023-03-04T00:53:10.388Z,77.30
2023-03-04T00:58:13.944Z,77.10
2023-03-04T01:03:16.157Z,77.10
2023-03-04T01:08:18.264Z,77.10
2023-03-04T01:13:21.945Z,77.10
2023-03-04T01:18:24.383Z,77.10
2023-03-04T01:23:26.625Z,77.10
2023-03-04T01:28:30.097Z,77.20
2023-03-04T01:33:32.183Z,77.30
2023-03-04T01:38:34.489Z,77.40
2023-03-04T01:43:38.346Z,77.50
2023-03-04T01:48:41.260Z,77.40
2023-03-04T01:53:44.836Z,77.40
2023-03-04T01:59:09.361Z,77.60
2023-03-04T02:04:12.473Z,78.00
2023-03-04T02:09:16.033Z,77.60
2023-03-04T02:14:20.547Z,77.60
2023-03-04T02:19:35.891Z,77.70
2023-03-04T02:24:44.044Z,77.80
2023-03-04T02:29:47.705Z,77.70
2023-03-04T02:34:50.880Z,77.80
2023-03-04T02:39:53.009Z,77.80
2023-03-04T02:45:01.657Z,77.80
2023-03-04T02:50:04.441Z,78.10
2023-03-04T02:55:07.555Z,78.00
2023-03-04T03:00:12.758Z,78.00
2023-03-04T03:05:19.799Z,78.10
2023-03-04T03:10:24.298Z,78.20
2023-03-04T03:15:30.995Z,78.20
2023-03-04T03:20:35.971Z,78.30
2023-03-04T03:25:42.522Z,78.20
2023-03-04T03:30:48.341Z,78.30
2023-03-04T03:35:50.576Z,78.40
2023-03-04T03:40:52.966Z,78.30
2023-03-04T03:45:56.565Z,78.50
2023-03-04T03:50:58.699Z,78.60
2023-03-04T03:56:00.836Z,78.60
2023-03-04T04:01:04.609Z,78.70
2023-03-04T04:06:07.129Z,78.90
2023-03-04T04:11:10.125Z,79.10
2023-03-04T04:16:13.744Z,79.00
2023-03-04T04:21:15.925Z,79.20
2023-03-04T04:26:18.422Z,79.30
2023-03-04T04:31:22.079Z,79.60
2023-03-04T04:36:24.372Z,79.90
2023-03-04T04:41:29.880Z,80.00
2023-03-04T04:46:33.659Z,80.30
2023-03-04T04:51:37.483Z,80.50
2023-03-04T04:56:39.629Z,80.70
2023-03-04T05:01:43.239Z,80.80
2023-03-04T05:06:45.328Z,81.90
2023-03-04T05:11:47.450Z,81.10
2023-03-04T05:16:51.037Z,81.30
2023-03-04T05:21:53.229Z,81.70
2023-03-04T05:26:55.493Z,82.10
2023-03-04T05:31:59.226Z,81.90
2023-03-04T05:37:01.575Z,82.10
2023-03-04T05:42:03.853Z,81.90
2023-03-04T05:47:07.487Z,82.10
2023-03-04T05:52:12.491Z,83.10
2023-03-04T05:57:14.663Z,82.40
2023-03-04T06:02:18.375Z,82.20
2023-03-04T06:07:20.562Z,82.40
2023-03-04T06:12:22.633Z,82.40
2023-03-04T06:17:26.314Z,82.40
2023-03-04T06:22:29.055Z,82.40
2023-03-04T06:27:31.186Z,82.60
2023-03-04T06:32:34.858Z,82.50
2023-03-04T06:37:37.422Z,82.50
2023-03-04T06:42:40.517Z,82.50
2023-03-04T06:47:44.093Z,82.50
2023-03-04T06:52:46.545Z,82.70
2023-03-04T06:57:48.718Z,82.60
2023-03-04T07:02:54.995Z,82.50
2023-03-04T07:07:57.428Z,82.60
2023-03-04T07:12:59.681Z,82.70
2023-03-04T07:18:03.310Z,82.60
2023-03-04T07:23:05.495Z,82.50
2023-03-04T07:28:07.644Z,82.30
2023-03-04T07:33:11.232Z,83.10
2023-03-04T07:38:13.565Z,82.10
2023-03-04T07:43:15.622Z,81.90
2023-03-04T07:48:19.416Z,81.80
2023-03-04T07:53:21.604Z,81.60
2023-03-04T07:58:23.818Z,81.40
2023-03-04T08:03:29.100Z,81.20
2023-03-04T08:08:31.267Z,81.20
2023-03-04T08:13:33.720Z,81.00
2023-03-04T08:18:37.384Z,80.80
2023-03-04T08:23:39.759Z,80.80
2023-03-04T08:28:42.171Z,80.70
2023-03-04T08:33:46.033Z,80.70
2023-03-04T08:38:48.347Z,80.80
2023-03-04T08:43:50.554Z,80.60
2023-03-04T08:48:54.160Z,80.50
2023-03-04T08:53:56.342Z,80.90
2023-03-04T08:58:59.654Z,81.00
2023-03-04T09:04:03.323Z,81.00
2023-03-04T09:09:05.583Z,80.80
2023-03-04T09:14:07.742Z,80.50
2023-03-04T09:19:11.383Z,80.20
2023-03-04T09:24:14.059Z,80.30
2023-03-04T09:29:16.277Z,80.00
2023-03-04T09:34:19.729Z,79.80
2023-03-04T09:39:21.972Z,79.40
2023-03-04T09:44:28.438Z,79.20
2023-03-04T09:49:32.551Z,79.10
2023-03-04T09:54:55.896Z,79.20
2023-03-04T10:00:10.228Z,79.50
2023-03-04T10:05:19.811Z,78.90
2023-03-04T10:10:29.441Z,78.30
2023-03-04T10:15:36.938Z,77.90
2023-03-04T10:20:51.862Z,77.50
2023-03-04T10:25:54.419Z,77.30
2023-03-04T10:31:01.876Z,77.60
2023-03-04T10:36:22.401Z,77.50
2023-03-04T10:41:28.842Z,77.00
2023-03-04T10:46:32.038Z,77.60
2023-03-04T10:51:43.024Z,77.80
2023-03-04T10:56:55.920Z,76.40
2023-03-04T11:01:58.553Z,75.90
2023-03-04T11:07:02.001Z,76.00
2023-03-04T11:12:11.191Z,75.40
2023-03-04T11:17:21.009Z,75.50
2023-03-04T11:22:27.688Z,76.00
2023-03-04T11:27:44.586Z,75.70
2023-03-04T11:32:49.750Z,74.80
2023-03-04T11:37:59.664Z,75.20
2023-03-04T11:43:07.345Z,74.40
2023-03-04T11:48:18.261Z,73.90
2023-03-04T11:53:36.259Z,73.50
2023-03-04T11:59:17.004Z,73.40
2023-03-04T12:04:40.481Z,73.00
2023-03-04T12:09:56.115Z,73.60
2023-03-04T12:15:10.990Z,73.40
2023-03-04T12:20:40.996Z,72.60
2023-03-04T12:25:53.825Z,71.30
2023-03-04T12:31:14.073Z,71.20
2023-03-04T12:36:30.676Z,71.20
2023-03-04T12:41:43.830Z,71.50
2023-03-04T12:47:14.440Z,71.70
2023-03-04T12:52:27.781Z,71.90
2023-03-04T12:57:40.553Z,71.80
2023-03-04T13:02:57.043Z,71.00
2023-03-04T13:08:08.566Z,71.40
2023-03-04T13:13:38.366Z,71.40
2023-03-04T13:18:44.021Z,70.50
2023-03-04T13:23:46.596Z,70.90
2023-03-04T13:29:10.060Z,70.90
2023-03-04T13:34:48.137Z,71.00
2023-03-04T13:40:51.877Z,71.10
2023-03-04T13:45:55.093Z,70.90
2023-03-04T13:50:58.951Z,71.40
2023-03-04T13:56:35.909Z,70.90
2023-03-04T14:02:03.334Z,70.50
2023-03-04T14:07:19.968Z,70.80
2023-03-04T14:12:22.977Z,71.00
2023-03-04T14:17:31.003Z,70.50
2023-03-04T14:22:39.036Z,69.60
2023-03-04T14:27:41.945Z,69.80
2023-03-04T14:32:48.595Z,70.10
2023-03-04T14:37:58.506Z,70.30
2023-03-04T14:43:04.527Z,70.30
2023-03-04T14:48:19.985Z,70.60
2023-03-04T14:53:25.030Z,70.60
2023-03-04T14:58:29.834Z,71.30
2023-03-04T15:03:36.273Z,71.70
2023-03-04T15:08:41.857Z,71.80
2023-03-04T15:13:51.657Z,72.00
2023-03-04T15:19:01.034Z,72.10
2023-03-04T15:24:05.147Z,72.20
2023-03-04T15:29:14.378Z,72.30
2023-03-04T15:34:20.705Z,72.80
2023-03-04T15:39:23.082Z,72.90
2023-03-04T15:44:26.332Z,72.70
2023-03-04T15:49:30.922Z,72.50
2023-03-04T15:54:33.646Z,72.70
2023-03-04T15:59:36.682Z,73.10
2023-03-04T16:04:40.725Z,73.30
2023-03-04T16:09:58.807Z,73.40
2023-03-04T16:15:01.245Z,73.70
2023-03-04T16:32:33.878Z,74.00
2023-03-04T16:37:50.130Z,73.90
2023-03-04T16:43:13.775Z,74.10
2023-03-04T16:52:27.756Z,74.50
2023-03-04T17:01:44.902Z,74.70
2023-03-04T17:30:19.690Z,75.40
2023-03-04T17:35:23.483Z,75.80
2023-03-04T17:40:25.651Z,76.00
2023-03-04T17:45:27.999Z,76.10
2023-03-04T17:50:31.693Z,76.10
2023-03-04T17:55:33.814Z,76.10
2023-03-04T18:00:36.035Z,76.10
2023-03-04T18:05:39.664Z,76.00
2023-03-04T18:10:41.766Z,76.00
2023-03-04T18:15:43.875Z,76.20
2023-03-04T18:20:47.986Z,76.40
2023-03-04T18:25:51.217Z,76.30
2023-03-04T18:30:53.986Z,76.20
2023-03-04T18:36:02.792Z,76.10
2023-03-04T18:41:06.966Z,76.10
2023-03-04T18:46:11.632Z,76.20
2023-03-04T18:51:15.221Z,76.30
2023-03-04T18:56:21.346Z,76.50
2023-03-04T19:01:24.994Z,77.00
2023-03-04T19:06:30.849Z,77.20
2023-03-04T19:11:33.291Z,77.50
2023-03-04T19:16:35.576Z,77.40
2023-03-04T19:21:39.452Z,77.50
2023-03-04T19:26:41.559Z,77.70
2023-03-04T19:31:43.927Z,77.90
2023-03-04T19:36:47.611Z,78.00
2023-03-04T19:41:50.034Z,78.10
2023-03-04T19:46:52.132Z,78.10
2023-03-04T19:52:01.341Z,78.00
2023-03-04T19:57:03.495Z,78.00
2023-03-04T20:02:05.645Z,77.80
2023-03-04T20:07:10.324Z,77.90
2023-03-04T20:12:12.475Z,78.20
2023-03-04T20:17:14.605Z,78.10
2023-03-04T20:22:18.091Z,78.10
2023-03-04T20:27:22.172Z,78.00
2023-03-04T20:32:24.632Z,78.10
2023-03-04T20:37:28.368Z,78.10
2023-03-04T20:42:30.532Z,78.30
2023-03-04T20:47:32.679Z,78.20
2023-03-04T20:52:36.284Z,78.20
2023-03-04T20:57:38.548Z,78.40
2023-03-04T21:02:40.756Z,78.50
2023-03-04T21:07:44.524Z,78.40
2023-03-04T21:12:46.794Z,78.20
2023-03-04T21:17:48.877Z,78.20
2023-03-04T21:22:52.666Z,78.30
2023-03-04T21:27:55.061Z,78.30
2023-03-04T21:32:57.273Z,78.30
2023-03-04T21:38:00.849Z,78.40
2023-03-04T21:43:03.025Z,78.30
2023-03-04T21:48:05.473Z,78.40
2023-03-04T21:53:09.088Z,78.30
2023-03-04T21:58:11.236Z,78.40
2023-03-04T22:03:13.345Z,78.30
2023-03-04T22:08:19.197Z,78.20
2023-03-04T22:13:21.323Z,78.20
2023-03-04T22:18:23.612Z,78.20
2023-03-04T22:23:27.493Z,78.20
2023-03-04T22:28:30.574Z,78.50
2023-03-04T22:33:32.842Z,78.90
2023-03-04T22:38:36.542Z,79.20
2023-03-04T22:43:38.823Z,79.40
2023-03-04T22:48:41.296Z,79.50
2023-03-04T22:53:44.788Z,79.60
2023-03-04T22:58:48.239Z,79.80
2023-03-04T23:03:50.557Z,79.80
2023-03-04T23:08:56.015Z,79.70
2023-03-04T23:13:58.474Z,80.00
2023-03-04T23:19:00.590Z,80.10
2023-03-04T23:24:06.781Z,80.10
2023-03-04T23:29:11.439Z,80.20
2023-03-04T23:34:13.950Z,80.10
2023-03-04T23:39:24.793Z,80.00
2023-03-04T23:44:27.064Z,80.30
2023-03-04T23:49:29.245Z,80.00
2023-03-04T23:54:32.933Z,80.20
2023-03-04T23:59:35.092Z,80.60
